createdAt,value
2022-11-05T00:00:31.901Z,97.73
2022-11-05T00:03:17.669Z,97.48
2022-11-05T00:06:05.375Z,96.25
2022-11-05T00:08:51.251Z,94.24
2022-11-05T00:11:18.650Z,92.59
2022-11-05T00:14:04.060Z,91.64
2022-11-05T00:16:46.356Z,91.95
2022-11-05T00:19:15.091Z,91.84
2022-11-05T00:22:00.946Z,92.61
2022-11-05T00:24:46.437Z,93.70
2022-11-05T00:27:13.326Z,96.32
2022-11-05T00:29:40.277Z,96.33
2022-11-05T00:32:07.285Z,95.93
2022-11-05T00:34:34.358Z,95.38
2022-11-05T00:37:01.301Z,95.95
2022-11-05T00:39:28.164Z,96.03
2022-11-05T00:42:13.940Z,97.78
2022-11-05T00:44:59.553Z,99.43
2022-11-05T00:47:45.062Z,98.76
2022-11-05T00:50:12.326Z,99.24
2022-11-05T00:52:57.890Z,99.38
2022-11-05T00:55:35.689Z,99.55
2022-11-05T00:58:05.309Z,99.31
2022-11-05T01:00:33.847Z,98.75
2022-11-05T01:03:03.508Z,99.40
2022-11-05T01:05:32.291Z,99.35
2022-11-05T01:07:59.450Z,98.99
2022-11-05T01:10:26.568Z,98.63
2022-11-05T01:12:54.041Z,99.27
2022-11-05T01:15:21.585Z,99.71
2022-11-05T01:17:48.821Z,100.00
2022-11-05T01:20:16.603Z,100.00
2022-11-05T01:22:43.601Z,100.00
2022-11-05T01:25:10.690Z,100.00
2022-11-05T01:27:38.281Z,100.00
2022-11-05T01:30:07.901Z,100.00
2022-11-05T01:32:36.429Z,100.00
2022-11-05T01:35:08.168Z,100.00
2022-11-05T01:37:36.448Z,100.00
2022-11-05T01:40:04.124Z,100.00
2022-11-05T01:42:32.433Z,100.00
2022-11-05T01:45:26.567Z,100.00
2022-11-05T01:48:16.629Z,100.00
2022-11-05T01:51:01.450Z,100.00
2022-11-05T01:53:44.900Z,100.00
2022-11-05T01:56:14.648Z,100.00
2022-11-05T01:58:56.934Z,100.00
2022-11-05T02:01:25.149Z,100.00
2022-11-05T02:03:57.609Z,100.00
2022-11-05T02:06:27.560Z,100.00
2022-11-05T02:09:00.230Z,100.00
2022-11-05T02:11:27.031Z,100.00
2022-11-05T02:13:54.124Z,100.00
2022-11-05T02:16:29.222Z,100.00
2022-11-05T02:19:05.805Z,100.00
2022-11-05T02:21:58.670Z,100.00
2022-11-05T02:24:31.684Z,100.00
2022-11-05T02:27:16.412Z,100.00
2022-11-05T02:30:03.148Z,100.00
2022-11-05T02:32:54.885Z,100.00
2022-11-05T02:35:50.126Z,100.00
2022-11-05T02:38:32.193Z,100.00
2022-11-05T02:41:31.646Z,100.00
2022-11-05T02:44:16.789Z,100.00
2022-11-05T02:47:12.893Z,100.00
2022-11-05T02:50:02.499Z,100.00
2022-11-05T02:52:37.793Z,100.00
2022-11-05T02:55:18.846Z,100.00
2022-11-05T02:57:47.962Z,100.00
2022-11-05T03:00:55.004Z,100.00
2022-11-05T03:03:36.829Z,100.00
2022-11-05T03:06:35.151Z,100.00
2022-11-05T03:09:24.050Z,100.00
2022-11-05T03:12:15.387Z,100.00
2022-11-05T03:15:11.294Z,100.00
2022-11-05T03:17:38.090Z,100.00
2022-11-05T03:20:22.075Z,100.00
2022-11-05T03:23:01.209Z,100.00
2022-11-05T03:25:29.607Z,100.00
2022-11-05T03:28:00.877Z,100.00
2022-11-05T03:30:28.401Z,100.00
2022-11-05T03:33:03.673Z,100.00
2022-11-05T03:35:40.627Z,100.00
2022-11-05T03:38:13.358Z,100.00
2022-11-05T03:40:41.610Z,100.00
2022-11-05T03:43:09.680Z,100.00
2022-11-05T03:45:51.676Z,100.00
2022-11-05T03:48:21.086Z,100.00
2022-11-05T03:51:11.270Z,100.00
2022-11-05T03:53:46.042Z,100.00
2022-11-05T03:56:36.092Z,100.00
2022-11-05T03:59:06.617Z,100.00
2022-11-05T04:01:36.348Z,100.00
2022-11-05T04:04:05.562Z,100.00
2022-11-05T04:06:51.026Z,100.00
2022-11-05T04:09:36.989Z,100.00
2022-11-05T04:12:23.143Z,100.00
2022-11-05T04:14:50.202Z,100.00
2022-11-05T04:17:17.454Z,100.00
2022-11-05T04:20:04.339Z,100.00
2022-11-05T04:22:53.002Z,100.00
2022-11-05T04:25:21.546Z,100.00
2022-11-05T04:27:49.046Z,100.00
2022-11-05T04:30:18.472Z,100.00
2022-11-05T04:33:00.338Z,100.00
2022-11-05T04:35:30.506Z,100.00
2022-11-05T04:37:57.574Z,100.00
2022-11-05T04:40:25.142Z,100.00
2022-11-05T04:42:54.564Z,100.00
2022-11-05T04:45:23.460Z,100.00
2022-11-05T04:47:50.643Z,100.00
2022-11-05T04:50:18.301Z,100.00
2022-11-05T04:52:45.414Z,100.00
2022-11-05T04:55:12.739Z,100.00
2022-11-05T04:57:40.109Z,100.00
2022-11-05T05:00:08.361Z,100.00
2022-11-05T05:02:38.558Z,100.00
2022-11-05T05:05:05.950Z,100.00
2022-11-05T05:07:34.900Z,100.00
2022-11-05T05:10:03.758Z,100.00
2022-11-05T05:12:32.790Z,100.00
2022-11-05T05:14:59.911Z,100.00
2022-11-05T05:17:27.132Z,100.00
2022-11-05T05:20:13.143Z,100.00
2022-11-05T05:22:41.230Z,100.00
2022-11-05T05:25:08.879Z,100.00
2022-11-05T05:27:35.965Z,100.00
2022-11-05T05:30:03.936Z,100.00
2022-11-05T05:32:30.995Z,100.00
2022-11-05T05:34:58.520Z,100.00
2022-11-05T05:37:25.596Z,100.00
2022-11-05T05:39:53.726Z,100.00
2022-11-05T05:42:23.189Z,100.00
2022-11-05T05:44:50.260Z,100.00
2022-11-05T05:47:17.455Z,100.00
2022-11-05T05:49:44.467Z,100.00
2022-11-05T05:52:11.662Z,100.00
2022-11-05T05:54:42.781Z,100.00
2022-11-05T05:57:10.374Z,100.00
2022-11-05T05:59:37.963Z,100.00
2022-11-05T06:02:05.273Z,100.00
2022-11-05T06:04:32.528Z,100.00
2022-11-05T06:06:59.799Z,100.00
2022-11-05T06:09:26.762Z,100.00
2022-11-05T06:11:53.944Z,100.00
2022-11-05T06:14:21.302Z,100.00
2022-11-05T06:16:48.485Z,100.00
2022-11-05T06:19:15.587Z,100.00
2022-11-05T06:21:42.713Z,100.00
2022-11-05T06:24:10.856Z,100.00
2022-11-05T06:26:43.013Z,100.00
2022-11-05T06:29:10.856Z,100.00
2022-11-05T06:31:38.399Z,100.00
2022-11-05T06:34:05.876Z,100.00
2022-11-05T06:36:33.650Z,100.00
2022-11-05T06:39:01.006Z,100.00
2022-11-05T06:41:28.503Z,100.00
2022-11-05T06:43:55.889Z,100.00
2022-11-05T06:46:23.439Z,100.00
2022-11-05T06:48:51.251Z,100.00
2022-11-05T06:51:19.006Z,100.00
2022-11-05T06:53:46.223Z,100.00
2022-11-05T06:56:13.249Z,100.00
2022-11-05T06:58:40.675Z,100.00
2022-11-05T07:01:10.234Z,100.00
2022-11-05T07:03:39.038Z,100.00
2022-11-05T07:06:07.783Z,100.00
2022-11-05T07:08:36.890Z,100.00
2022-11-05T07:11:04.947Z,100.00
2022-11-05T07:13:32.273Z,100.00
2022-11-05T07:15:59.462Z,100.00
2022-11-05T07:18:27.038Z,100.00
2022-11-05T07:20:54.204Z,100.00
2022-11-05T07:23:21.280Z,100.00
2022-11-05T07:25:48.285Z,100.00
2022-11-05T07:28:15.524Z,100.00
2022-11-05T07:30:42.436Z,100.00
2022-11-05T07:33:10.211Z,100.00
2022-11-05T07:35:37.301Z,100.00
2022-11-05T07:38:04.533Z,100.00
2022-11-05T07:40:31.921Z,100.00
2022-11-05T07:43:00.892Z,100.00
2022-11-05T07:45:30.425Z,100.00
2022-11-05T07:48:03.540Z,100.00
2022-11-05T07:50:33.300Z,98.59
2022-11-05T07:53:02.479Z,96.88
2022-11-05T07:55:30.314Z,95.24
2022-11-05T07:57:57.716Z,93.84
2022-11-05T08:00:25.947Z,92.81
2022-11-05T08:03:07.605Z,92.46
2022-11-05T08:05:37.885Z,92.17
2022-11-05T08:08:06.480Z,92.57
2022-11-05T08:10:34.295Z,92.62
2022-11-05T08:13:02.099Z,93.12
2022-11-05T08:15:29.427Z,92.98
2022-11-05T08:18:12.197Z,93.04
2022-11-05T08:20:39.602Z,93.25
2022-11-05T08:23:06.680Z,92.71
2022-11-05T08:25:34.347Z,93.67
2022-11-05T08:28:05.421Z,93.79
2022-11-05T08:30:33.202Z,93.72
2022-11-05T08:33:05.792Z,92.27
2022-11-05T08:35:35.060Z,91.70
2022-11-05T08:38:04.053Z,90.26
2022-11-05T08:40:33.367Z,88.73
2022-11-05T08:43:05.233Z,89.25
2022-11-05T08:45:38.283Z,87.27
2022-11-05T08:48:09.198Z,88.08
2022-11-05T08:50:37.481Z,87.60
2022-11-05T08:53:06.303Z,86.16
2022-11-05T08:55:33.959Z,85.09
2022-11-05T08:58:03.374Z,84.81
2022-11-05T09:00:33.537Z,85.14
2022-11-05T09:03:02.431Z,84.20
2022-11-05T09:05:31.407Z,84.44
2022-11-05T09:08:01.453Z,84.62
2022-11-05T09:10:29.097Z,84.42
2022-11-05T09:12:56.649Z,83.92
2022-11-05T09:15:24.682Z,83.55
2022-11-05T09:17:52.184Z,83.42
2022-11-05T09:20:19.776Z,82.46
2022-11-05T09:22:47.164Z,82.25
2022-11-05T09:25:15.982Z,78.76
2022-11-05T09:27:43.865Z,78.74
2022-11-05T09:30:13.532Z,78.84
2022-11-05T09:32:41.202Z,78.05
2022-11-05T09:35:09.456Z,77.87
2022-11-05T09:37:38.174Z,77.33
2022-11-05T09:40:06.115Z,78.34
2022-11-05T09:42:40.869Z,78.51
2022-11-05T09:45:13.633Z,78.03
2022-11-05T09:47:43.217Z,78.09
2022-11-05T09:50:20.316Z,78.83
2022-11-05T09:52:47.603Z,79.94
2022-11-05T09:55:39.243Z,80.09
2022-11-05T09:58:35.978Z,80.16
2022-11-05T10:01:07.718Z,81.09
2022-11-05T10:03:43.675Z,81.70
2022-11-05T10:06:19.373Z,83.24
2022-11-05T10:08:53.039Z,83.12
2022-11-05T10:11:37.536Z,84.00
2022-11-05T10:14:49.578Z,84.39
2022-11-05T10:17:22.613Z,85.50
2022-11-05T10:20:02.523Z,85.60
2022-11-05T10:22:29.662Z,86.54
2022-11-05T10:24:56.975Z,86.97
2022-11-05T10:27:31.351Z,87.80
2022-11-05T10:29:58.872Z,88.18
2022-11-05T10:32:34.411Z,88.33
2022-11-05T10:35:04.571Z,88.63
2022-11-05T10:37:37.021Z,88.42
2022-11-05T10:40:18.608Z,88.62
2022-11-05T10:42:48.314Z,88.74
2022-11-05T10:45:30.813Z,88.65
2022-11-05T10:48:29.952Z,89.41
2022-11-05T10:50:57.730Z,89.70
2022-11-05T10:53:33.104Z,90.73
2022-11-05T10:56:00.713Z,90.67
2022-11-05T10:58:34.862Z,89.84
2022-11-05T11:01:07.053Z,89.61
2022-11-05T11:03:39.474Z,89.64
2022-11-05T11:06:28.125Z,89.48
2022-11-05T11:08:58.077Z,90.06
2022-11-05T11:11:38.516Z,89.96
2022-11-05T11:14:18.803Z,89.56
2022-11-05T11:16:48.142Z,89.87
2022-11-05T11:19:25.490Z,90.34
2022-11-05T11:22:04.488Z,91.09
2022-11-05T11:24:43.617Z,92.03
2022-11-05T11:27:22.835Z,92.96
2022-11-05T11:30:01.587Z,92.90
2022-11-05T14:01:46.114Z,100.00
2022-11-05T14:04:27.975Z,100.00
2022-11-05T14:07:05.841Z,100.00
2022-11-05T14:09:36.136Z,100.00
2022-11-05T14:12:05.453Z,100.00
2022-11-05T14:14:48.106Z,100.00
2022-11-05T14:17:31.010Z,100.00
2022-11-05T14:20:04.713Z,100.00
2022-11-05T14:22:32.081Z,100.00
2022-11-05T14:25:23.427Z,100.00
2022-11-05T14:27:52.711Z,100.00
2022-11-05T14:30:41.079Z,100.00
2022-11-05T14:33:27.228Z,100.00
2022-11-05T14:36:20.314Z,100.00
2022-11-05T14:38:51.134Z,100.00
2022-11-05T14:41:19.803Z,100.00
2022-11-05T14:44:13.267Z,100.00
2022-11-05T14:46:47.179Z,100.00
2022-11-05T14:49:21.456Z,100.00
2022-11-05T14:51:51.644Z,100.00
2022-11-05T14:54:34.021Z,100.00
2022-11-05T14:57:02.659Z,100.00
2022-11-05T14:59:31.827Z,100.00
2022-11-05T15:02:02.588Z,100.00
2022-11-05T15:04:32.951Z,100.00
2022-11-05T15:07:03.228Z,100.00
2022-11-05T15:09:33.321Z,100.00
2022-11-05T15:12:10.278Z,100.00
2022-11-05T15:15:00.555Z,100.00
2022-11-05T15:17:39.577Z,100.00
2022-11-05T15:20:06.783Z,100.00
2022-11-05T15:22:40.419Z,100.00
2022-11-05T15:25:29.873Z,100.00
2022-11-05T15:28:05.945Z,100.00
2022-11-05T15:30:33.402Z,100.00
2022-11-05T15:33:20.981Z,100.00
2022-11-05T15:35:48.833Z,100.00
2022-11-05T15:38:34.403Z,100.00
2022-11-05T15:41:21.310Z,100.00
2022-11-05T15:43:49.911Z,100.00
2022-11-05T15:46:31.044Z,100.00
2022-11-05T15:49:04.656Z,100.00
2022-11-05T15:51:32.288Z,100.00
2022-11-05T15:54:29.232Z,100.00
2022-11-05T15:57:00.351Z,100.00
2022-11-05T15:59:29.807Z,100.00
2022-11-05T16:02:06.113Z,100.00
2022-11-05T16:04:35.426Z,100.00
2022-11-05T16:07:12.301Z,100.00
2022-11-05T16:09:44.136Z,100.00
2022-11-05T16:12:38.108Z,100.00
2022-11-05T16:15:08.144Z,100.00
2022-11-05T16:17:47.613Z,100.00
2022-11-05T16:20:23.629Z,100.00
2022-11-05T16:22:54.319Z,100.00
2022-11-05T16:25:43.301Z,100.00
2022-11-05T16:28:22.506Z,100.00
2022-11-05T16:31:02.526Z,100.00
2022-11-05T16:33:43.016Z,100.00
2022-11-05T16:36:10.439Z,100.00
2022-11-05T16:38:37.527Z,100.00
2022-11-05T16:41:07.052Z,100.00
2022-11-05T16:43:34.683Z,100.00
2022-11-05T16:46:02.356Z,100.00
2022-11-05T16:48:29.562Z,100.00
2022-11-05T16:50:56.840Z,100.00
2022-11-05T16:53:24.015Z,100.00
2022-11-05T16:55:51.202Z,100.00
2022-11-05T16:58:24.086Z,100.00
2022-11-05T17:00:56.474Z,100.00
2022-11-05T17:03:24.086Z,100.00
2022-11-05T17:05:51.240Z,100.00
2022-11-05T17:08:18.367Z,100.00
2022-11-05T17:10:45.583Z,100.00
2022-11-05T17:13:15.667Z,100.00
2022-11-05T17:15:44.955Z,100.00
2022-11-05T17:18:17.966Z,100.00
2022-11-05T17:20:51.398Z,100.00
2022-11-05T17:23:21.017Z,100.00
2022-11-05T17:25:54.689Z,100.00
2022-11-05T17:28:22.007Z,100.00
2022-11-05T17:30:52.921Z,100.00
2022-11-05T17:33:23.120Z,100.00
2022-11-05T17:35:51.579Z,100.00
2022-11-05T17:38:18.954Z,100.00
2022-11-05T17:40:45.887Z,100.00
2022-11-05T17:43:13.076Z,100.00
2022-11-05T17:45:45.354Z,100.00
2022-11-05T17:48:13.001Z,100.00
2022-11-05T17:50:44.666Z,100.00
2022-11-05T17:53:12.877Z,100.00
2022-11-05T17:55:45.114Z,100.00
2022-11-05T17:58:12.452Z,100.00
2022-11-05T18:00:40.057Z,100.00
2022-11-05T18:03:07.218Z,100.00
2022-11-05T18:05:34.909Z,100.00
2022-11-05T20:44:05.146Z,100.00
2022-11-05T20:46:32.257Z,100.00
2022-11-05T20:48:59.607Z,100.00
2022-11-05T20:51:26.783Z,100.00
2022-11-05T20:54:01.879Z,100.00
2022-11-05T20:56:31.917Z,100.00
2022-11-05T20:59:00.947Z,100.00
2022-11-05T21:01:31.386Z,100.00
2022-11-05T21:04:00.007Z,100.00
2022-11-05T21:06:27.499Z,100.00
2022-11-05T21:08:55.467Z,100.00
2022-11-05T21:11:23.258Z,100.00
2022-11-05T21:13:51.007Z,100.00
2022-11-05T21:16:20.682Z,100.00
2022-11-05T21:18:48.639Z,100.00
2022-11-05T21:21:20.712Z,100.00
2022-11-05T21:23:48.550Z,100.00
2022-11-05T21:26:18.112Z,100.00
2022-11-05T21:28:45.707Z,100.00
2022-11-05T21:31:13.359Z,100.00
2022-11-05T21:33:40.807Z,100.00
2022-11-05T21:36:13.760Z,100.00
2022-11-05T21:38:41.239Z,100.00
2022-11-05T21:41:08.993Z,100.00
2022-11-05T21:43:38.750Z,100.00
2022-11-05T21:46:06.258Z,100.00
2022-11-05T21:48:34.191Z,100.00
2022-11-05T21:51:20.157Z,100.00
2022-11-05T21:54:06.813Z,100.00
2022-11-05T21:56:52.678Z,100.00
2022-11-05T21:59:41.655Z,100.00
2022-11-05T22:02:11.491Z,100.00
2022-11-05T22:04:41.925Z,100.00
2022-11-05T22:07:10.799Z,100.00
2022-11-05T22:09:38.749Z,100.00
2022-11-05T22:12:06.953Z,100.00
2022-11-05T22:14:34.628Z,100.00
2022-11-05T22:17:02.307Z,100.00
2022-11-05T22:19:30.801Z,100.00
2022-11-05T22:21:58.045Z,100.00
2022-11-05T22:24:25.842Z,100.00
2022-11-05T22:26:53.279Z,100.00
2022-11-05T22:29:20.505Z,100.00
2022-11-05T22:31:47.978Z,100.00
2022-11-05T22:34:14.978Z,100.00
2022-11-05T22:36:42.289Z,100.00
2022-11-05T22:39:11.929Z,100.00
2022-11-05T22:41:39.624Z,100.00
2022-11-05T22:44:06.912Z,100.00
2022-11-05T22:46:34.010Z,100.00
2022-11-05T22:49:01.141Z,100.00
2022-11-05T22:51:31.453Z,100.00
2022-11-05T22:53:59.531Z,100.00
2022-11-05T22:56:29.618Z,100.00
2022-11-05T22:58:57.503Z,100.00
2022-11-05T23:01:25.370Z,100.00
2022-11-05T23:03:54.448Z,100.00
2022-11-05T23:06:42.454Z,100.00
2022-11-05T23:09:38.381Z,100.00
2022-11-05T23:12:08.963Z,100.00
2022-11-05T23:14:36.778Z,100.00
2022-11-05T23:17:22.653Z,100.00
2022-11-05T23:20:08.167Z,100.00
2022-11-05T23:22:53.841Z,100.00
2022-11-05T23:25:22.895Z,100.00
2022-11-05T23:27:52.393Z,100.00
2022-11-05T23:30:24.794Z,100.00
2022-11-05T23:32:52.970Z,100.00
2022-11-05T23:35:43.673Z,100.00
2022-11-05T23:38:29.335Z,100.00
2022-11-05T23:41:22.614Z,100.00
2022-11-05T23:44:08.103Z,100.00
2022-11-05T23:46:54.386Z,100.00
2022-11-05T23:49:22.230Z,100.00
2022-11-05T23:51:49.676Z,100.00
2022-11-05T23:54:16.605Z,100.00
2022-11-05T23:56:43.552Z,100.00
2022-11-05T23:59:10.921Z,100.00
